createdAt,value
2018-12-06T00:00:13.946Z,-80
2018-12-06T00:01:13.620Z,-79
2018-12-06T00:02:13.557Z,-79
2018-12-06T00:03:13.565Z,-79
2018-12-06T00:04:13.641Z,-79
2018-12-06T00:05:13.532Z,-79
2018-12-06T00:06:13.620Z,-79
2018-12-06T00:07:13.526Z,-79
2018-12-06T00:08:14.443Z,-80
2018-12-06T00:09:13.682Z,-77
2018-12-06T00:10:13.653Z,-77
2018-12-06T00:11:13.556Z,-77
2018-12-06T00:12:13.783Z,-75
2018-12-06T00:13:13.590Z,-76
2018-12-06T00:14:13.591Z,-77
2018-12-06T00:15:13.512Z,-77
2018-12-06T00:16:13.926Z,-75
2018-12-06T00:17:13.629Z,-76
2018-12-06T00:18:13.784Z,-76
2018-12-06T00:19:13.652Z,-76
2018-12-06T00:20:13.787Z,-76
2018-12-06T00:21:13.769Z,-75
2018-12-06T00:22:13.929Z,-75
2018-12-06T00:23:13.612Z,-77
2018-12-06T00:24:13.755Z,-77
2018-12-06T00:25:13.553Z,-77
2018-12-06T00:26:13.702Z,-76
2018-12-06T00:27:13.700Z,-75
2018-12-06T00:28:13.560Z,-78
2018-12-06T00:29:13.651Z,-76
2018-12-06T00:30:13.583Z,-78
2018-12-06T00:31:13.768Z,-75
2018-12-06T00:32:13.663Z,-77
2018-12-06T00:33:13.630Z,-76
2018-12-06T00:34:13.752Z,-75
2018-12-06T00:35:13.501Z,-77
2018-12-06T00:36:13.761Z,-76
2018-12-06T00:37:13.775Z,-75
2018-12-06T00:38:13.537Z,-77
2018-12-06T00:39:13.526Z,-77
2018-12-06T00:40:13.488Z,-76
2018-12-06T00:41:13.504Z,-77
2018-12-06T00:42:13.487Z,-76
2018-12-06T00:43:13.513Z,-77
2018-12-06T00:44:13.543Z,-77
2018-12-06T00:45:13.570Z,-77
2018-12-06T00:46:13.490Z,-77
2018-12-06T00:47:13.493Z,-77
2018-12-06T00:48:13.520Z,-77
2018-12-06T00:49:13.803Z,-74
2018-12-06T00:50:13.547Z,-77
2018-12-06T00:51:13.527Z,-77
2018-12-06T00:52:13.766Z,-76
2018-12-06T00:53:13.504Z,-77
2018-12-06T00:54:13.531Z,-77
2018-12-06T00:55:13.655Z,-76
2018-12-06T00:56:13.509Z,-77
2018-12-06T00:57:13.998Z,-73
2018-12-06T00:58:13.510Z,-77
2018-12-06T00:59:13.484Z,-77
2018-12-06T01:00:13.998Z,-73
2018-12-06T01:01:14.142Z,-76
2018-12-06T01:02:13.679Z,-76
2018-12-06T01:03:14.293Z,-73
2018-12-06T01:04:13.463Z,-77
2018-12-06T01:05:13.764Z,-75
2018-12-06T01:06:13.524Z,-77
2018-12-06T01:07:13.571Z,-77
2018-12-06T01:08:13.768Z,-75
2018-12-06T01:09:13.518Z,-77
2018-12-06T01:10:13.574Z,-76
2018-12-06T01:11:13.699Z,-75
2018-12-06T01:12:13.569Z,-78
2018-12-06T01:13:13.661Z,-76
2018-12-06T01:14:13.778Z,-75
2018-12-06T01:15:13.862Z,-73
2018-12-06T01:16:13.722Z,-75
2018-12-06T01:17:13.489Z,-77
2018-12-06T01:18:13.686Z,-76
2018-12-06T01:19:13.514Z,-78
2018-12-06T01:20:13.533Z,-77
2018-12-06T01:21:14.059Z,-73
2018-12-06T01:22:13.450Z,-76
2018-12-06T01:23:13.625Z,-76
2018-12-06T01:24:13.530Z,-76
2018-12-06T01:25:13.553Z,-76
2018-12-06T01:26:13.597Z,-75
2018-12-06T01:27:13.605Z,-77
2018-12-06T01:28:13.530Z,-76
2018-12-06T01:29:13.551Z,-76
2018-12-06T01:30:13.727Z,-75
2018-12-06T01:31:13.826Z,-74
2018-12-06T01:32:13.479Z,-76
2018-12-06T01:33:13.477Z,-76
2018-12-06T01:34:13.411Z,-77
2018-12-06T01:35:13.454Z,-76
2018-12-06T01:36:13.592Z,-75
2018-12-06T01:37:13.479Z,-76
2018-12-06T01:38:13.471Z,-77
2018-12-06T01:39:13.684Z,-75
2018-12-06T01:40:13.441Z,-76
2018-12-06T01:41:13.724Z,-75
2018-12-06T01:42:13.552Z,-76
2018-12-06T01:43:13.472Z,-77
2018-12-06T01:44:13.562Z,-75
2018-12-06T01:45:13.727Z,-77
2018-12-06T01:46:13.463Z,-77
2018-12-06T01:47:13.485Z,-77
2018-12-06T01:48:13.443Z,-77
2018-12-06T01:49:13.615Z,-75
2018-12-06T01:50:13.398Z,-77
2018-12-06T01:51:13.465Z,-77
2018-12-06T01:52:13.568Z,-76
2018-12-06T01:53:13.477Z,-77
2018-12-06T01:54:13.543Z,-77
2018-12-06T01:55:13.518Z,-76
2018-12-06T01:56:13.481Z,-76
2018-12-06T01:57:13.417Z,-76
2018-12-06T01:58:13.446Z,-76
2018-12-06T01:59:13.410Z,-76
2018-12-06T02:00:13.691Z,-75
2018-12-06T02:01:13.425Z,-77
2018-12-06T02:02:13.468Z,-76
2018-12-06T02:03:13.614Z,-76
2018-12-06T02:04:13.514Z,-76
2018-12-06T02:05:13.423Z,-77
2018-12-06T02:06:13.466Z,-76
2018-12-06T02:07:13.552Z,-76
2018-12-06T02:08:13.361Z,-77
2018-12-06T02:09:13.505Z,-76
2018-12-06T02:10:13.476Z,-76
2018-12-06T02:11:13.421Z,-76
2018-12-06T02:12:13.384Z,-78
2018-12-06T02:13:13.406Z,-77
2018-12-06T02:14:13.366Z,-77
2018-12-06T02:15:13.368Z,-77
2018-12-06T02:16:13.379Z,-77
2018-12-06T02:17:13.421Z,-76
2018-12-06T02:18:13.374Z,-77
2018-12-06T02:19:13.433Z,-77
2018-12-06T02:20:13.357Z,-77
2018-12-06T02:21:13.441Z,-77
2018-12-06T02:22:13.371Z,-77
2018-12-06T02:23:13.364Z,-77
2018-12-06T02:24:13.421Z,-76
2018-12-06T02:25:13.376Z,-77
2018-12-06T02:26:13.417Z,-77
2018-12-06T02:27:13.343Z,-77
2018-12-06T02:28:13.537Z,-76
2018-12-06T02:29:13.350Z,-77
2018-12-06T02:30:13.364Z,-77
2018-12-06T02:31:13.419Z,-77
2018-12-06T02:32:13.513Z,-76
2018-12-06T02:33:13.401Z,-76
2018-12-06T02:34:13.831Z,-74
2018-12-06T02:35:13.733Z,-73
2018-12-06T02:36:13.562Z,-75
2018-12-06T02:37:13.470Z,-77
2018-12-06T02:38:13.883Z,-73
2018-12-06T02:39:13.523Z,-77
2018-12-06T02:40:13.388Z,-77
2018-12-06T02:41:13.602Z,-76
2018-12-06T02:42:13.511Z,-78
2018-12-06T02:43:13.404Z,-77
2018-12-06T02:44:13.439Z,-77
2018-12-06T02:45:13.573Z,-75
2018-12-06T02:46:13.529Z,-75
2018-12-06T02:47:13.322Z,-77
2018-12-06T02:48:13.430Z,-76
2018-12-06T02:49:13.448Z,-77
2018-12-06T02:50:13.351Z,-77
2018-12-06T02:51:13.514Z,-77
2018-12-06T02:52:13.417Z,-77
2018-12-06T02:53:13.470Z,-77
2018-12-06T02:54:13.450Z,-76
2018-12-06T02:55:13.482Z,-76
2018-12-06T02:56:13.432Z,-77
2018-12-06T02:57:13.330Z,-76
2018-12-06T02:58:13.328Z,-76
2018-12-06T02:59:13.414Z,-76
2018-12-06T03:00:13.509Z,-76
2018-12-06T03:01:13.514Z,-76
2018-12-06T03:02:13.496Z,-75
2018-12-06T03:03:13.683Z,-73
2018-12-06T03:04:13.494Z,-75
2018-12-06T03:05:13.319Z,-77
2018-12-06T03:06:13.327Z,-77
2018-12-06T03:07:13.487Z,-78
2018-12-06T03:08:13.460Z,-76
2018-12-06T03:09:13.539Z,-75
2018-12-06T03:10:13.381Z,-76
2018-12-06T03:11:13.586Z,-76
2018-12-06T03:12:13.332Z,-76
2018-12-06T03:13:13.411Z,-76
2018-12-06T03:14:13.466Z,-77
2018-12-06T03:15:13.468Z,-76
2018-12-06T03:16:13.536Z,-75
2018-12-06T03:17:13.390Z,-76
2018-12-06T03:18:13.378Z,-77
2018-12-06T03:19:13.351Z,-76
2018-12-06T03:20:13.485Z,-75
2018-12-06T03:21:13.375Z,-76
2018-12-06T03:22:13.441Z,-78
2018-12-06T03:23:13.434Z,-76
2018-12-06T03:24:13.331Z,-77
2018-12-06T03:25:13.365Z,-76
2018-12-06T03:26:13.865Z,-76
2018-12-06T03:27:13.624Z,-74
2018-12-06T03:28:13.486Z,-75
2018-12-06T03:29:13.322Z,-77
2018-12-06T03:30:13.399Z,-77
2018-12-06T03:31:13.579Z,-75
2018-12-06T03:32:13.470Z,-76
2018-12-06T03:33:13.410Z,-76
2018-12-06T03:34:13.595Z,-76
2018-12-06T03:35:13.646Z,-74
2018-12-06T03:36:13.412Z,-76
2018-12-06T03:37:13.339Z,-76
2018-12-06T03:38:13.317Z,-77
2018-12-06T03:39:13.489Z,-76
2018-12-06T03:40:13.279Z,-77
2018-12-06T03:41:13.450Z,-76
2018-12-06T03:42:13.359Z,-77
2018-12-06T03:43:13.632Z,-74
2018-12-06T03:44:13.391Z,-76
2018-12-06T03:45:13.347Z,-76
2018-12-06T03:46:13.317Z,-76
2018-12-06T03:47:13.632Z,-75
2018-12-06T03:48:14.115Z,-72
2018-12-06T03:49:13.271Z,-77
2018-12-06T03:50:13.427Z,-75
2018-12-06T03:51:13.409Z,-77
2018-12-06T03:52:13.378Z,-76
2018-12-06T03:53:13.333Z,-76
2018-12-06T03:54:13.346Z,-76
2018-12-06T03:55:13.298Z,-76
2018-12-06T03:56:13.302Z,-77
2018-12-06T03:57:13.308Z,-77
2018-12-06T03:58:13.348Z,-77
2018-12-06T03:59:13.311Z,-77
2018-12-06T04:00:13.336Z,-77
2018-12-06T04:01:13.303Z,-77
2018-12-06T04:02:13.284Z,-77
2018-12-06T04:03:13.254Z,-77
2018-12-06T04:04:13.306Z,-76
2018-12-06T04:05:13.457Z,-76
2018-12-06T04:06:13.219Z,-77
2018-12-06T04:07:13.243Z,-78
2018-12-06T04:08:13.270Z,-76
2018-12-06T04:09:13.599Z,-75
2018-12-06T04:10:13.311Z,-77
2018-12-06T04:11:13.323Z,-77
2018-12-06T04:12:13.264Z,-77
2018-12-06T04:13:13.792Z,-73
2018-12-06T04:14:13.434Z,-76
2018-12-06T04:15:13.356Z,-77
2018-12-06T04:16:13.633Z,-75
2018-12-06T04:17:13.278Z,-77
2018-12-06T04:18:13.394Z,-76
2018-12-06T04:19:13.606Z,-73
2018-12-06T04:20:13.538Z,-75
2018-12-06T04:21:13.432Z,-76
2018-12-06T04:22:13.310Z,-77
2018-12-06T04:23:13.454Z,-76
2018-12-06T04:24:14.077Z,-72
2018-12-06T04:25:13.298Z,-76
2018-12-06T04:26:13.611Z,-74
2018-12-06T04:27:13.333Z,-76
2018-12-06T04:28:13.337Z,-76
2018-12-06T04:29:13.398Z,-76
2018-12-06T04:30:13.466Z,-76
2018-12-06T04:31:13.196Z,-77
2018-12-06T04:32:13.286Z,-76
2018-12-06T04:33:13.820Z,-74
2018-12-06T04:34:13.532Z,-75
2018-12-06T04:35:13.377Z,-74
2018-12-06T04:36:13.342Z,-76
2018-12-06T04:37:13.356Z,-76
2018-12-06T04:38:13.778Z,-74
2018-12-06T04:39:13.512Z,-77
2018-12-06T04:40:13.915Z,-72
2018-12-06T04:41:13.571Z,-76
2018-12-06T04:42:13.406Z,-75
2018-12-06T04:43:13.566Z,-75
2018-12-06T04:44:13.162Z,-76
2018-12-06T04:45:13.193Z,-76
2018-12-06T04:46:13.259Z,-75
2018-12-06T04:47:14.657Z,-75
2018-12-06T04:48:22.648Z,-81
2018-12-06T04:49:13.202Z,-79
2018-12-06T04:50:13.318Z,-79
2018-12-06T04:51:13.420Z,-75
2018-12-06T04:52:13.425Z,-80
2018-12-06T04:53:13.266Z,-77
2018-12-06T04:54:13.324Z,-77
2018-12-06T04:55:13.207Z,-76
2018-12-06T04:56:13.215Z,-78
2018-12-06T04:57:13.338Z,-75
2018-12-06T04:58:13.403Z,-80
2018-12-06T04:59:13.290Z,-76
2018-12-06T05:00:13.483Z,-74
2018-12-06T05:01:13.255Z,-79
2018-12-06T05:02:13.244Z,-77
2018-12-06T05:03:13.291Z,-77
2018-12-06T05:04:13.320Z,-76
2018-12-06T05:05:13.403Z,-76
2018-12-06T05:06:13.182Z,-77
2018-12-06T05:07:13.162Z,-79
2018-12-06T05:08:13.204Z,-79
2018-12-06T05:09:13.293Z,-79
2018-12-06T05:10:13.164Z,-79
2018-12-06T05:11:13.287Z,-77
2018-12-06T05:12:13.970Z,-73
2018-12-06T05:13:14.348Z,-76
2018-12-06T05:14:13.229Z,-77
2018-12-06T05:15:13.211Z,-75
2018-12-06T05:16:13.477Z,-75
2018-12-06T05:17:13.245Z,-76
2018-12-06T05:18:13.155Z,-76
2018-12-06T05:19:13.234Z,-79
2018-12-06T05:20:13.523Z,-79
2018-12-06T05:21:13.254Z,-79
2018-12-06T05:22:13.196Z,-77
2018-12-06T05:23:14.433Z,-77
2018-12-06T05:24:13.313Z,-76
2018-12-06T05:25:13.340Z,-78
2018-12-06T05:26:13.155Z,-77
2018-12-06T05:27:13.252Z,-80
2018-12-06T05:28:13.325Z,-79
2018-12-06T05:29:13.246Z,-77
2018-12-06T05:30:13.213Z,-79
2018-12-06T05:31:13.458Z,-80
2018-12-06T05:32:13.287Z,-79
2018-12-06T05:33:13.224Z,-79
2018-12-06T05:34:13.315Z,-79
2018-12-06T05:35:13.120Z,-79
2018-12-06T05:36:13.184Z,-79
2018-12-06T05:37:13.124Z,-79
2018-12-06T05:38:13.243Z,-80
2018-12-06T05:39:13.215Z,-77
2018-12-06T05:40:13.244Z,-81
2018-12-06T05:41:13.522Z,-79
2018-12-06T05:42:13.206Z,-76
2018-12-06T05:43:13.241Z,-76
2018-12-06T05:44:13.145Z,-76
2018-12-06T05:45:13.358Z,-75
2018-12-06T05:46:13.235Z,-79
2018-12-06T05:47:13.139Z,-79
2018-12-06T05:48:13.229Z,-79
2018-12-06T05:49:13.237Z,-80
2018-12-06T05:50:13.212Z,-79
2018-12-06T05:51:14.735Z,-73
2018-12-06T05:52:13.126Z,-77
2018-12-06T05:53:13.255Z,-76
2018-12-06T05:54:13.186Z,-76
2018-12-06T05:55:13.911Z,-81
2018-12-06T05:56:13.173Z,-79
2018-12-06T05:57:13.162Z,-79
2018-12-06T05:58:13.217Z,-79
2018-12-06T05:59:13.121Z,-79
2018-12-06T06:00:13.197Z,-79
2018-12-06T06:01:13.137Z,-79
2018-12-06T06:02:13.314Z,-79
2018-12-06T06:03:13.349Z,-80
2018-12-06T06:04:13.159Z,-79
2018-12-06T06:05:13.236Z,-79
2018-12-06T06:06:13.503Z,-80
2018-12-06T06:07:13.931Z,-82
2018-12-06T06:08:13.086Z,-79
2018-12-06T06:09:13.739Z,-81
2018-12-06T06:10:13.315Z,-80
2018-12-06T06:11:13.261Z,-79
2018-12-06T06:12:13.463Z,-82
2018-12-06T06:13:13.111Z,-79
2018-12-06T06:14:13.250Z,-80
2018-12-06T06:15:13.185Z,-81
2018-12-06T06:16:13.274Z,-79
2018-12-06T06:17:13.248Z,-82
2018-12-06T06:18:13.177Z,-79
2018-12-06T06:19:13.048Z,-79
2018-12-06T06:20:13.197Z,-80
2018-12-06T06:21:13.369Z,-81
2018-12-06T06:22:13.207Z,-80
2018-12-06T06:23:13.347Z,-81
2018-12-06T06:24:13.083Z,-79
2018-12-06T06:25:13.245Z,-79
2018-12-06T06:26:13.274Z,-80
2018-12-06T06:27:13.193Z,-80
2018-12-06T06:28:13.320Z,-80
2018-12-06T06:29:13.434Z,-80
2018-12-06T06:30:13.284Z,-81
2018-12-06T06:31:13.203Z,-79
2018-12-06T06:32:13.051Z,-80
2018-12-06T06:33:13.187Z,-79
2018-12-06T06:34:13.219Z,-80
2018-12-06T06:35:13.285Z,-80
2018-12-06T06:36:13.516Z,-82
2018-12-06T06:37:13.345Z,-80
2018-12-06T06:38:13.322Z,-80
2018-12-06T06:39:13.255Z,-79
2018-12-06T06:40:13.299Z,-80
2018-12-06T06:41:13.133Z,-80
2018-12-06T06:42:13.248Z,-81
2018-12-06T06:43:13.260Z,-81
2018-12-06T06:44:13.247Z,-81
2018-12-06T06:45:13.063Z,-77
2018-12-06T06:46:13.272Z,-75
2018-12-06T06:47:13.652Z,-73
2018-12-06T06:48:13.259Z,-76
2018-12-06T06:49:14.575Z,-77
2018-12-06T06:50:13.235Z,-75
2018-12-06T06:51:13.259Z,-77
2018-12-06T06:52:13.258Z,-75
2018-12-06T06:53:13.070Z,-77
2018-12-06T06:54:13.352Z,-81
2018-12-06T06:55:13.095Z,-80
2018-12-06T06:56:13.204Z,-80
2018-12-06T06:57:13.385Z,-82
2018-12-06T06:58:13.276Z,-81
2018-12-06T06:59:13.047Z,-79
2018-12-06T07:00:13.032Z,-80
2018-12-06T07:01:13.707Z,-80
2018-12-06T07:02:13.011Z,-79
2018-12-06T07:03:13.282Z,-80
2018-12-06T07:04:13.124Z,-80
2018-12-06T07:05:13.228Z,-81
2018-12-06T07:06:13.532Z,-81
2018-12-06T07:07:13.169Z,-80
2018-12-06T07:08:13.036Z,-79
2018-12-06T07:09:13.381Z,-81
2018-12-06T07:10:13.313Z,-80
2018-12-06T07:11:13.284Z,-81
2018-12-06T07:12:13.167Z,-81
2018-12-06T07:13:13.263Z,-79
2018-12-06T07:14:13.071Z,-79
2018-12-06T07:15:13.018Z,-79
2018-12-06T07:16:13.185Z,-80
2018-12-06T07:17:13.112Z,-80
2018-12-06T07:18:13.050Z,-80
2018-12-06T07:19:13.032Z,-79
2018-12-06T07:20:13.041Z,-79
2018-12-06T07:21:13.062Z,-80
2018-12-06T07:22:13.004Z,-79
2018-12-06T07:23:13.240Z,-81
2018-12-06T07:24:13.429Z,-79
2018-12-06T07:25:13.196Z,-79
2018-12-06T07:26:13.092Z,-79
2018-12-06T07:27:12.976Z,-79
2018-12-06T07:28:13.184Z,-80
2018-12-06T07:29:12.998Z,-79
2018-12-06T07:30:13.154Z,-79
2018-12-06T07:31:13.100Z,-79
2018-12-06T07:32:12.974Z,-79
2018-12-06T07:33:13.408Z,-79
2018-12-06T07:34:13.368Z,-81
2018-12-06T07:35:12.997Z,-79
2018-12-06T07:36:12.998Z,-79
2018-12-06T07:37:13.046Z,-79
2018-12-06T07:38:13.252Z,-79
2018-12-06T07:39:13.056Z,-79
2018-12-06T07:40:13.052Z,-79
2018-12-06T07:41:14.967Z,-82
2018-12-06T07:42:13.163Z,-81
2018-12-06T07:43:13.291Z,-79
2018-12-06T07:44:12.958Z,-80
2018-12-06T07:45:13.291Z,-81
2018-12-06T07:46:13.193Z,-81
2018-12-06T07:47:12.990Z,-80
2018-12-06T07:48:13.823Z,-81
2018-12-06T07:49:13.235Z,-81
2018-12-06T07:50:13.198Z,-80
2018-12-06T07:51:13.018Z,-79
2018-12-06T07:52:13.200Z,-81
2018-12-06T07:53:13.041Z,-81
2018-12-06T07:54:14.396Z,-81
2018-12-06T07:55:13.241Z,-81
2018-12-06T07:56:13.178Z,-80
2018-12-06T07:57:13.164Z,-80
2018-12-06T07:58:13.132Z,-82
2018-12-06T07:59:13.168Z,-80
2018-12-06T08:00:13.432Z,-82
2018-12-06T08:01:13.245Z,-82
2018-12-06T08:02:13.185Z,-81
2018-12-06T08:03:13.259Z,-80
2018-12-06T08:04:13.114Z,-79
2018-12-06T08:05:12.956Z,-80
2018-12-06T08:06:13.153Z,-81
2018-12-06T08:07:13.196Z,-81
2018-12-06T08:08:13.779Z,-82
2018-12-06T08:09:13.567Z,-82
2018-12-06T08:10:16.371Z,-80
2018-12-06T08:11:12.959Z,-80
2018-12-06T08:12:13.196Z,-81
2018-12-06T08:13:13.258Z,-77
2018-12-06T08:14:13.105Z,-75
2018-12-06T08:15:12.950Z,-78
2018-12-06T08:16:13.145Z,-76
2018-12-06T08:17:13.306Z,-74
2018-12-06T08:18:13.378Z,-76
2018-12-06T08:19:14.492Z,-78
2018-12-06T08:20:12.936Z,-77
2018-12-06T08:21:13.037Z,-80
2018-12-06T08:22:12.976Z,-80
2018-12-06T08:23:13.043Z,-80
2018-12-06T08:24:13.165Z,-80
2018-12-06T08:25:13.156Z,-81
2018-12-06T08:26:13.010Z,-80
2018-12-06T08:27:13.046Z,-80
2018-12-06T08:28:13.139Z,-80
2018-12-06T08:29:13.165Z,-81
2018-12-06T08:30:13.101Z,-80
2018-12-06T08:31:12.926Z,-79
2018-12-06T08:32:12.976Z,-80
2018-12-06T08:33:13.292Z,-80
2018-12-06T08:34:13.050Z,-79
2018-12-06T08:35:13.216Z,-82
2018-12-06T08:36:12.966Z,-80
2018-12-06T08:37:12.970Z,-80
2018-12-06T08:38:13.037Z,-81
2018-12-06T08:39:13.329Z,-82
2018-12-06T08:40:12.993Z,-81
2018-12-06T08:41:13.001Z,-80
2018-12-06T08:42:13.092Z,-80
2018-12-06T08:43:13.034Z,-80
2018-12-06T08:44:13.452Z,-82
2018-12-06T08:45:13.016Z,-80
2018-12-06T08:46:13.172Z,-82
2018-12-06T08:47:13.185Z,-82
2018-12-06T08:48:13.052Z,-81
2018-12-06T08:49:12.903Z,-80
2018-12-06T08:50:12.918Z,-80
2018-12-06T08:51:12.923Z,-80
2018-12-06T08:52:13.080Z,-80
2018-12-06T08:53:12.883Z,-80
2018-12-06T08:54:13.043Z,-80
2018-12-06T08:55:12.897Z,-81
2018-12-06T08:56:12.892Z,-80
2018-12-06T08:57:12.905Z,-80
2018-12-06T08:58:12.919Z,-81
2018-12-06T08:59:16.113Z,-80
2018-12-06T09:00:12.982Z,-81
2018-12-06T09:01:12.867Z,-81
2018-12-06T09:02:13.112Z,-82
2018-12-06T09:03:12.852Z,-80
2018-12-06T09:04:12.859Z,-79
2018-12-06T09:05:12.862Z,-80
2018-12-06T09:06:12.957Z,-80
2018-12-06T09:07:12.844Z,-81
2018-12-06T09:08:12.957Z,-80
2018-12-06T09:09:12.932Z,-80
2018-12-06T09:10:12.931Z,-79
2018-12-06T09:11:13.148Z,-81
2018-12-06T09:12:12.880Z,-80
2018-12-06T09:13:12.869Z,-80
2018-12-06T09:14:12.850Z,-80
2018-12-06T09:15:12.907Z,-80
2018-12-06T09:16:12.988Z,-81
2018-12-06T09:17:12.880Z,-81
2018-12-06T09:18:13.393Z,-81
2018-12-06T09:19:15.063Z,-79
2018-12-06T09:20:13.058Z,-81
2018-12-06T09:21:13.209Z,-82
2018-12-06T09:22:12.953Z,-82
2018-12-06T09:23:12.889Z,-81
2018-12-06T09:24:13.177Z,-81
2018-12-06T09:25:12.954Z,-81
2018-12-06T09:26:13.081Z,-81
2018-12-06T09:27:12.939Z,-81
2018-12-06T09:28:13.039Z,-81
2018-12-06T09:29:13.217Z,-81
2018-12-06T09:30:12.977Z,-81
2018-12-06T09:31:12.947Z,-81
2018-12-06T09:32:12.837Z,-81
2018-12-06T09:33:12.916Z,-81
2018-12-06T09:34:12.842Z,-81
2018-12-06T09:35:12.933Z,-82
2018-12-06T09:36:12.909Z,-81
2018-12-06T09:37:13.101Z,-81
2018-12-06T09:38:12.855Z,-81
2018-12-06T09:39:12.855Z,-81
2018-12-06T09:40:13.051Z,-81
2018-12-06T09:41:12.869Z,-81
2018-12-06T09:42:13.045Z,-81
2018-12-06T09:43:13.122Z,-81
2018-12-06T09:44:12.884Z,-81
2018-12-06T09:45:13.306Z,-81
2018-12-06T09:46:12.959Z,-81
2018-12-06T09:47:12.863Z,-81
2018-12-06T09:48:13.024Z,-81
2018-12-06T09:49:13.523Z,-81
2018-12-06T09:50:13.002Z,-81
2018-12-06T09:51:13.278Z,-81
2018-12-06T09:52:13.311Z,-78
2018-12-06T09:53:12.936Z,-80
2018-12-06T09:54:13.027Z,-80
2018-12-06T09:55:12.815Z,-80
2018-12-06T09:56:12.925Z,-79
2018-12-06T09:57:12.884Z,-80
2018-12-06T09:58:12.904Z,-80
2018-12-06T09:59:12.996Z,-81
2018-12-06T10:00:13.147Z,-81
2018-12-06T10:01:13.253Z,-81
2018-12-06T10:02:12.850Z,-82
2018-12-06T10:03:12.857Z,-81
2018-12-06T10:04:13.346Z,-82
2018-12-06T10:05:12.893Z,-80
2018-12-06T10:06:13.219Z,-78
2018-12-06T10:07:13.213Z,-78
2018-12-06T10:08:13.255Z,-78
2018-12-06T10:09:13.020Z,-82
2018-12-06T10:10:14.035Z,-82
2018-12-06T10:11:13.331Z,-81
2018-12-06T10:12:12.956Z,-81
2018-12-06T10:13:12.826Z,-82
2018-12-06T10:14:12.939Z,-82
2018-12-06T10:15:12.855Z,-81
2018-12-06T10:16:12.884Z,-82
2018-12-06T10:17:12.919Z,-82
2018-12-06T10:18:13.684Z,-78
2018-12-06T10:19:13.605Z,-77
2018-12-06T10:20:12.894Z,-82
2018-12-06T10:21:12.991Z,-82
2018-12-06T10:22:12.989Z,-82
2018-12-06T10:23:12.729Z,-81
2018-12-06T10:24:12.781Z,-80
2018-12-06T10:25:12.920Z,-81
2018-12-06T10:26:12.915Z,-82
2018-12-06T10:27:12.985Z,-82
2018-12-06T10:28:12.908Z,-82
2018-12-06T10:29:12.794Z,-82
2018-12-06T10:30:12.834Z,-82
2018-12-06T10:31:12.861Z,-82
2018-12-06T10:32:12.812Z,-82
2018-12-06T10:33:12.895Z,-82
2018-12-06T10:34:12.953Z,-81
2018-12-06T10:35:12.833Z,-82
2018-12-06T10:36:12.755Z,-82
2018-12-06T10:37:12.787Z,-82
2018-12-06T10:38:12.803Z,-82
2018-12-06T10:39:12.776Z,-82
2018-12-06T10:40:13.157Z,-82
2018-12-06T10:41:12.812Z,-82
2018-12-06T10:42:12.794Z,-82
2018-12-06T10:43:12.765Z,-82
2018-12-06T10:44:12.828Z,-82
2018-12-06T10:45:12.783Z,-82
2018-12-06T10:46:12.812Z,-82
2018-12-06T10:47:12.762Z,-81
2018-12-06T10:48:12.872Z,-81
2018-12-06T10:49:12.780Z,-82
2018-12-06T10:50:12.837Z,-81
2018-12-06T10:51:12.778Z,-82
2018-12-06T10:52:12.868Z,-82
2018-12-06T10:53:13.185Z,-82
2018-12-06T10:54:12.780Z,-82
2018-12-06T10:55:13.018Z,-82
2018-12-06T10:56:12.838Z,-82
2018-12-06T10:57:12.828Z,-82
2018-12-06T10:58:12.799Z,-82
2018-12-06T10:59:12.860Z,-82
2018-12-06T11:00:12.894Z,-81
2018-12-06T11:01:12.784Z,-82
2018-12-06T11:02:12.870Z,-82
2018-12-06T11:03:12.987Z,-82
2018-12-06T11:04:13.020Z,-82
2018-12-06T11:05:12.869Z,-82
2018-12-06T11:06:12.755Z,-81
2018-12-06T11:07:12.860Z,-82
2018-12-06T11:08:12.733Z,-82
2018-12-06T11:09:13.097Z,-81
2018-12-06T11:10:12.912Z,-79
2018-12-06T11:11:12.838Z,-78
2018-12-06T11:12:12.760Z,-78
2018-12-06T11:13:12.666Z,-79
2018-12-06T11:14:13.250Z,-79
2018-12-06T11:15:12.919Z,-78
2018-12-06T11:16:12.808Z,-79
2018-12-06T11:17:13.117Z,-78
2018-12-06T11:18:12.792Z,-79
2018-12-06T11:19:13.182Z,-78
2018-12-06T11:20:13.036Z,-79
2018-12-06T11:21:12.992Z,-79
2018-12-06T11:22:12.974Z,-78
2018-12-06T11:23:12.827Z,-79
2018-12-06T11:24:12.845Z,-79
2018-12-06T11:25:13.228Z,-78
2018-12-06T11:26:12.823Z,-79
2018-12-06T11:27:13.190Z,-78
2018-12-06T11:28:12.903Z,-79
2018-12-06T11:29:12.870Z,-79
2018-12-06T11:30:12.871Z,-78
2018-12-06T11:31:12.744Z,-79
2018-12-06T11:32:13.034Z,-78
2018-12-06T11:33:12.740Z,-79
2018-12-06T11:34:13.121Z,-78
2018-12-06T11:35:12.734Z,-78
2018-12-06T11:36:12.883Z,-78
2018-12-06T11:37:12.973Z,-78
2018-12-06T11:38:12.874Z,-78
2018-12-06T11:39:12.767Z,-79
2018-12-06T11:40:12.687Z,-78
2018-12-06T11:41:12.880Z,-78
2018-12-06T11:42:12.951Z,-78
2018-12-06T11:43:12.707Z,-81
2018-12-06T11:44:12.965Z,-81
2018-12-06T11:45:12.710Z,-82
2018-12-06T11:46:12.724Z,-82
2018-12-06T11:47:13.319Z,-82
2018-12-06T11:48:12.849Z,-82
2018-12-06T11:49:12.862Z,-82
2018-12-06T11:50:12.735Z,-82
2018-12-06T11:51:12.731Z,-81
2018-12-06T11:52:13.014Z,-82
2018-12-06T11:53:12.680Z,-82
2018-12-06T11:54:12.710Z,-82
2018-12-06T11:55:13.424Z,-82
2018-12-06T11:56:12.769Z,-82
2018-12-06T11:57:12.887Z,-82
2018-12-06T11:58:12.928Z,-82
2018-12-06T11:59:12.798Z,-82
2018-12-06T12:00:12.811Z,-82
2018-12-06T12:01:13.701Z,-81
2018-12-06T12:02:12.804Z,-81
2018-12-06T12:03:12.808Z,-82
2018-12-06T12:04:13.003Z,-82
2018-12-06T12:05:12.980Z,-81
2018-12-06T12:06:13.650Z,-82
2018-12-06T12:07:12.698Z,-81
2018-12-06T12:08:12.913Z,-82
2018-12-06T12:09:12.764Z,-82
2018-12-06T12:10:12.852Z,-82
2018-12-06T12:11:12.729Z,-82
2018-12-06T12:12:13.139Z,-81
2018-12-06T12:13:12.906Z,-81
2018-12-06T12:14:12.684Z,-82
2018-12-06T12:15:12.670Z,-81
2018-12-06T12:16:12.660Z,-81
2018-12-06T12:17:12.706Z,-81
2018-12-06T12:18:12.703Z,-81
2018-12-06T12:19:12.736Z,-82
2018-12-06T12:20:12.624Z,-82
2018-12-06T12:21:12.665Z,-82
2018-12-06T12:22:12.688Z,-82
2018-12-06T12:23:12.818Z,-81
2018-12-06T12:24:12.634Z,-82
2018-12-06T12:25:12.722Z,-82
2018-12-06T12:26:12.844Z,-82
2018-12-06T12:27:12.696Z,-80
2018-12-06T12:28:12.656Z,-82
2018-12-06T12:29:12.692Z,-82
2018-12-06T12:30:12.633Z,-82
2018-12-06T12:31:12.654Z,-81
2018-12-06T12:32:12.715Z,-81
2018-12-06T12:33:12.688Z,-82
2018-12-06T12:34:12.684Z,-82
2018-12-06T12:35:12.642Z,-82
2018-12-06T12:36:12.756Z,-81
2018-12-06T12:37:12.678Z,-82
2018-12-06T12:38:12.635Z,-82
2018-12-06T12:39:12.660Z,-80
2018-12-06T12:40:12.682Z,-82
2018-12-06T12:41:13.166Z,-81
2018-12-06T12:42:12.962Z,-81
2018-12-06T12:43:13.005Z,-81
2018-12-06T12:44:13.120Z,-83
2018-12-06T12:45:12.634Z,-82
2018-12-06T12:46:12.895Z,-81
2018-12-06T12:47:12.660Z,-82
2018-12-06T12:48:12.780Z,-82
2018-12-06T12:49:12.648Z,-82
2018-12-06T12:50:13.438Z,-81
2018-12-06T12:51:12.743Z,-81
2018-12-06T12:52:12.766Z,-82
2018-12-06T12:53:12.829Z,-82
2018-12-06T12:54:12.935Z,-81
2018-12-06T12:55:12.634Z,-81
2018-12-06T12:56:12.802Z,-82
2018-12-06T12:57:12.787Z,-82
2018-12-06T12:58:12.983Z,-81
2018-12-06T12:59:12.713Z,-82
2018-12-06T13:00:13.025Z,-82
2018-12-06T13:01:12.684Z,-82
2018-12-06T13:02:12.664Z,-81
2018-12-06T13:03:13.014Z,-82
2018-12-06T13:04:12.621Z,-81
2018-12-06T13:05:13.016Z,-82
2018-12-06T13:06:12.646Z,-81
2018-12-06T13:07:12.757Z,-82
2018-12-06T13:08:12.743Z,-81
2018-12-06T13:09:12.768Z,-81
2018-12-06T13:10:12.921Z,-82
2018-12-06T13:11:12.704Z,-82
2018-12-06T13:12:12.726Z,-82
2018-12-06T13:13:12.723Z,-82
2018-12-06T13:14:12.617Z,-81
2018-12-06T13:15:12.656Z,-82
2018-12-06T13:16:12.578Z,-81
2018-12-06T13:17:12.962Z,-82
2018-12-06T13:18:12.663Z,-82
2018-12-06T13:19:12.831Z,-82
2018-12-06T13:20:12.854Z,-82
2018-12-06T13:21:12.736Z,-81
2018-12-06T13:22:12.725Z,-82
2018-12-06T13:23:12.636Z,-81
2018-12-06T13:24:12.650Z,-82
2018-12-06T13:25:12.675Z,-79
2018-12-06T13:26:12.739Z,-79
2018-12-06T13:27:12.755Z,-78
2018-12-06T13:28:12.672Z,-79
2018-12-06T13:29:12.811Z,-79
2018-12-06T13:30:12.639Z,-79
2018-12-06T13:31:12.549Z,-79
2018-12-06T13:32:13.389Z,-77
2018-12-06T13:33:12.608Z,-79
2018-12-06T13:34:12.605Z,-79
2018-12-06T13:35:12.725Z,-79
2018-12-06T13:36:12.636Z,-78
2018-12-06T13:37:12.710Z,-78
2018-12-06T13:38:12.952Z,-78
2018-12-06T13:39:12.549Z,-80
2018-12-06T13:40:12.659Z,-78
2018-12-06T13:41:12.943Z,-79
2018-12-06T13:42:12.642Z,-79
2018-12-06T13:43:12.726Z,-78
2018-12-06T13:44:14.669Z,-78
2018-12-06T13:45:12.894Z,-78
2018-12-06T13:46:13.221Z,-79